Airfield :
LOGIN :

Register | Disclaimer

   EN    FR    IT 

 










Legend :    VFR   Marginal VFR   IFR   Intensive IFR   Very Intensive IFR
Visi :
Ceiling :
>= 8 km
>= 3000ft
5 to 8 km
1000 to 3000 ft
1500m to 5 km
500 to 1000 ft
800 to 1500m
200 to 500 ft
< 800m
< 200 ft
Symbols :   Thunderstorms  Fog  Heavy snow  Heavy precipitations  Wind > 20 kt
SIGMETs :     Misc.  Thunderstorms  Icing  Turbulence  Mountain Waves  Volcanic Ashes







- Airport Elevation : 160 ft
- IATA code : LRT
- Download approach charts


LFRH - Lorient Lann Bihoue

CURRENT METAR :
  • 170700Z AUTO VRB03KT 9000 FEW002 14/14 Q1019 NOSIG

EXPIRED METARs :
  • 170630Z AUTO VRB03KT 7000 VV/// 13/13 Q1019 BECMG NSC
  • 170600Z AUTO 06004KT 1800 BR VV/// 12/11 Q1019 BECMG 20010KT 9999 NSW BKN015
  • 170530Z AUTO 06003KT 2100 0900 R25/1300U R07/1600U BCFG VV/// 10/10 Q1019 BECMG 20010KT 9999 NSW BKN015
  • 170500Z AUTO 06003KT 0450 0300 R25/0400N R07/0750D FG VV/// 09/08 Q1019 TEMPO 0800 BCFG SCT002 SCT015
  • 170430Z AUTO 05003KT 0500 0350 R25/0450N R07/0700D FG VV/// 09/09 Q1019 BECMG 23010KT 9999 NSW BKN010

TAF TAF LFRH
Valid from the 17 at 06:00 until the 18 at 06:00 UTC


170500Z 1706/1806 11005KT 0800 BCFG SCT005 BKN010
BECMG 1706/1708 20010KT 9999 NSW BKN015
BECMG 1708/1710 CAVOK
BECMG 1716/1718 28010KT
BECMG 1720/1722 35005KT
No reported NOTAMs for that airfield.



MET'MAP, your aeronautical weather chart ! - Copyright ORBIFLY December 2007 - Disclaimer

ORBIFLY MET'MAP TEAM :

Programming & Development : Alexandra Zaïnal
Concept & Development : Baudouin d'Aumeries
Co-Development & Prog : Marc-Olivier Méhu
Technical & hardware support : Manuel Goepfert

Contact : metmap@orbifly.com




SOURCES & CREDITS :

   NOAA